sensor_id;sensor_type;location;lat;lon;timestamp;P1;durP1;ratioP1;P2;durP2;ratioP2
16173;SDS011;14031;50.158;8.626;2022-12-10T00:01:21;18.97;;;12.13;;
16173;SDS011;14031;50.158;8.626;2022-12-10T00:03:49;18.30;;;11.87;;
16173;SDS011;14031;50.158;8.626;2022-12-10T00:06:17;18.33;;;11.27;;
16173;SDS011;14031;50.158;8.626;2022-12-10T00:08:46;18.67;;;11.90;;
16173;SDS011;14031;50.158;8.626;2022-12-10T00:11:13;17.80;;;11.53;;
16173;SDS011;14031;50.158;8.626;2022-12-10T00:13:42;18.53;;;11.60;;
16173;SDS011;14031;50.158;8.626;2022-12-10T00:16:10;22.00;;;11.67;;
16173;SDS011;14031;50.158;8.626;2022-12-10T00:18:41;15.37;;;11.13;;
16173;SDS011;14031;50.158;8.626;2022-12-10T00:21:09;18.00;;;10.73;;
16173;SDS011;14031;50.158;8.626;2022-12-10T00:23:37;16.17;;;11.50;;
16173;SDS011;14031;50.158;8.626;2022-12-10T00:26:05;18.30;;;11.17;;
16173;SDS011;14031;50.158;8.626;2022-12-10T00:28:33;14.47;;;10.67;;
16173;SDS011;14031;50.158;8.626;2022-12-10T00:31:03;14.73;;;10.50;;
16173;SDS011;14031;50.158;8.626;2022-12-10T00:33:31;16.13;;;11.27;;
16173;SDS011;14031;50.158;8.626;2022-12-10T00:36:02;15.57;;;11.10;;
16173;SDS011;14031;50.158;8.626;2022-12-10T00:38:29;15.33;;;10.53;;
16173;SDS011;14031;50.158;8.626;2022-12-10T00:40:56;13.97;;;10.10;;
16173;SDS011;14031;50.158;8.626;2022-12-10T00:43:23;13.33;;;10.43;;
16173;SDS011;14031;50.158;8.626;2022-12-10T00:45:50;16.83;;;10.87;;
16173;SDS011;14031;50.158;8.626;2022-12-10T00:48:17;16.47;;;11.17;;
16173;SDS011;14031;50.158;8.626;2022-12-10T00:50:43;15.97;;;10.80;;
16173;SDS011;14031;50.158;8.626;2022-12-10T00:53:11;17.07;;;10.33;;
16173;SDS011;14031;50.158;8.626;2022-12-10T00:55:38;14.33;;;10.10;;
16173;SDS011;14031;50.158;8.626;2022-12-10T00:58:05;15.63;;;10.57;;
16173;SDS011;14031;50.158;8.626;2022-12-10T01:00:32;14.27;;;9.77;;
16173;SDS011;14031;50.158;8.626;2022-12-10T01:02:58;15.63;;;10.33;;
16173;SDS011;14031;50.158;8.626;2022-12-10T01:05:25;17.70;;;11.27;;
16173;SDS011;14031;50.158;8.626;2022-12-10T01:07:52;16.77;;;10.87;;
16173;SDS011;14031;50.158;8.626;2022-12-10T01:10:21;15.97;;;10.67;;
16173;SDS011;14031;50.158;8.626;2022-12-10T01:12:47;16.67;;;10.87;;
16173;SDS011;14031;50.158;8.626;2022-12-10T01:15:14;18.83;;;11.43;;
16173;SDS011;14031;50.158;8.626;2022-12-10T01:17:41;17.80;;;10.40;;
16173;SDS011;14031;50.158;8.626;2022-12-10T01:20:08;17.77;;;11.13;;
16173;SDS011;14031;50.158;8.626;2022-12-10T01:22:37;16.33;;;9.83;;
16173;SDS011;14031;50.158;8.626;2022-12-10T01:25:04;17.67;;;11.23;;
16173;SDS011;14031;50.158;8.626;2022-12-10T01:27:33;16.53;;;10.30;;
16173;SDS011;14031;50.158;8.626;2022-12-10T01:30:00;16.37;;;10.40;;
16173;SDS011;14031;50.158;8.626;2022-12-10T01:32:27;14.03;;;9.90;;
16173;SDS011;14031;50.158;8.626;2022-12-10T01:34:54;13.13;;;9.77;;
16173;SDS011;14031;50.158;8.626;2022-12-10T01:37:20;12.13;;;9.93;;
16173;SDS011;14031;50.158;8.626;2022-12-10T01:39:47;14.13;;;9.60;;
16173;SDS011;14031;50.158;8.626;2022-12-10T01:42:14;13.37;;;9.90;;
16173;SDS011;14031;50.158;8.626;2022-12-10T01:44:57;12.30;;;9.47;;
16173;SDS011;14031;50.158;8.626;2022-12-10T01:47:36;14.67;;;10.20;;
16173;SDS011;14031;50.158;8.626;2022-12-10T01:50:03;13.80;;;9.70;;
16173;SDS011;14031;50.158;8.626;2022-12-10T01:52:31;12.93;;;9.23;;
16173;SDS011;14031;50.158;8.626;2022-12-10T01:54:58;14.50;;;9.97;;
16173;SDS011;14031;50.158;8.626;2022-12-10T01:57:26;11.83;;;8.87;;
16173;SDS011;14031;50.158;8.626;2022-12-10T01:59:55;13.67;;;9.00;;
16173;SDS011;14031;50.158;8.626;2022-12-10T02:02:34;10.60;;;8.40;;
16173;SDS011;14031;50.158;8.626;2022-12-10T02:05:12;11.73;;;8.23;;
16173;SDS011;14031;50.158;8.626;2022-12-10T02:07:50;10.50;;;8.20;;
16173;SDS011;14031;50.158;8.626;2022-12-10T02:10:25;10.57;;;8.57;;
16173;SDS011;14031;50.158;8.626;2022-12-10T02:13:04;12.40;;;8.50;;
16173;SDS011;14031;50.158;8.626;2022-12-10T02:15:36;10.40;;;8.10;;
16173;SDS011;14031;50.158;8.626;2022-12-10T02:18:08;12.50;;;8.50;;
16173;SDS011;14031;50.158;8.626;2022-12-10T02:20:40;10.83;;;8.70;;
16173;SDS011;14031;50.158;8.626;2022-12-10T02:23:10;11.50;;;8.70;;
16173;SDS011;14031;50.158;8.626;2022-12-10T02:25:41;11.90;;;8.40;;
16173;SDS011;14031;50.158;8.626;2022-12-10T02:28:13;11.03;;;8.33;;
16173;SDS011;14031;50.158;8.626;2022-12-10T02:30:52;10.57;;;8.30;;
16173;SDS011;14031;50.158;8.626;2022-12-10T02:33:21;9.80;;;8.10;;
16173;SDS011;14031;50.158;8.626;2022-12-10T02:35:50;8.83;;;7.57;;
16173;SDS011;14031;50.158;8.626;2022-12-10T02:38:20;10.77;;;8.27;;
16173;SDS011;14031;50.158;8.626;2022-12-10T02:40:52;13.60;;;8.17;;
16173;SDS011;14031;50.158;8.626;2022-12-10T02:43:23;10.53;;;8.23;;
16173;SDS011;14031;50.158;8.626;2022-12-10T02:45:53;10.93;;;8.17;;
16173;SDS011;14031;50.158;8.626;2022-12-10T02:48:21;9.30;;;8.07;;
16173;SDS011;14031;50.158;8.626;2022-12-10T02:50:49;10.07;;;7.97;;
16173;SDS011;14031;50.158;8.626;2022-12-10T02:53:16;11.20;;;8.17;;
16173;SDS011;14031;50.158;8.626;2022-12-10T02:55:49;10.10;;;7.30;;
16173;SDS011;14031;50.158;8.626;2022-12-10T02:58:26;10.30;;;7.97;;
16173;SDS011;14031;50.158;8.626;2022-12-10T03:01:02;11.17;;;8.20;;
16173;SDS011;14031;50.158;8.626;2022-12-10T03:03:38;9.23;;;7.63;;
16173;SDS011;14031;50.158;8.626;2022-12-10T03:06:16;8.90;;;7.70;;
16173;SDS011;14031;50.158;8.626;2022-12-10T03:08:47;9.93;;;7.80;;
16173;SDS011;14031;50.158;8.626;2022-12-10T03:11:18;8.83;;;7.70;;
16173;SDS011;14031;50.158;8.626;2022-12-10T03:13:49;12.07;;;8.37;;
16173;SDS011;14031;50.158;8.626;2022-12-10T03:16:22;9.33;;;7.40;;
16173;SDS011;14031;50.158;8.626;2022-12-10T03:18:52;8.87;;;7.83;;
16173;SDS011;14031;50.158;8.626;2022-12-10T03:21:23;9.83;;;8.43;;
16173;SDS011;14031;50.158;8.626;2022-12-10T03:23:55;11.47;;;8.63;;
16173;SDS011;14031;50.158;8.626;2022-12-10T03:26:22;8.77;;;7.87;;
16173;SDS011;14031;50.158;8.626;2022-12-10T03:28:50;9.50;;;8.47;;
16173;SDS011;14031;50.158;8.626;2022-12-10T03:31:25;11.70;;;8.23;;
16173;SDS011;14031;50.158;8.626;2022-12-10T03:33:55;10.50;;;7.80;;
16173;SDS011;14031;50.158;8.626;2022-12-10T03:36:22;11.17;;;8.30;;
16173;SDS011;14031;50.158;8.626;2022-12-10T03:38:50;9.60;;;8.17;;
16173;SDS011;14031;50.158;8.626;2022-12-10T03:41:17;10.57;;;7.87;;
16173;SDS011;14031;50.158;8.626;2022-12-10T03:43:51;9.10;;;8.13;;
16173;SDS011;14031;50.158;8.626;2022-12-10T03:46:26;8.57;;;7.53;;
16173;SDS011;14031;50.158;8.626;2022-12-10T03:48:54;9.07;;;7.80;;
16173;SDS011;14031;50.158;8.626;2022-12-10T03:51:22;10.17;;;8.07;;
16173;SDS011;14031;50.158;8.626;2022-12-10T03:53:48;8.73;;;7.43;;
16173;SDS011;14031;50.158;8.626;2022-12-10T03:56:16;11.20;;;7.97;;
16173;SDS011;14031;50.158;8.626;2022-12-10T03:58:43;11.17;;;8.40;;
16173;SDS011;14031;50.158;8.626;2022-12-10T04:01:10;9.97;;;8.17;;
16173;SDS011;14031;50.158;8.626;2022-12-10T04:03:39;12.17;;;8.43;;
16173;SDS011;14031;50.158;8.626;2022-12-10T04:06:09;15.17;;;8.17;;
16173;SDS011;14031;50.158;8.626;2022-12-10T04:08:37;9.33;;;7.73;;
16173;SDS011;14031;50.158;8.626;2022-12-10T04:11:05;10.23;;;8.10;;
16173;SDS011;14031;50.158;8.626;2022-12-10T04:13:32;11.27;;;8.83;;
16173;SDS011;14031;50.158;8.626;2022-12-10T04:16:17;10.03;;;7.83;;
16173;SDS011;14031;50.158;8.626;2022-12-10T04:18:54;13.30;;;8.80;;
16173;SDS011;14031;50.158;8.626;2022-12-10T04:21:22;9.17;;;7.50;;
16173;SDS011;14031;50.158;8.626;2022-12-10T04:24:07;9.20;;;7.50;;
16173;SDS011;14031;50.158;8.626;2022-12-10T04:26:52;10.13;;;8.03;;
16173;SDS011;14031;50.158;8.626;2022-12-10T04:29:20;9.07;;;7.97;;
16173;SDS011;14031;50.158;8.626;2022-12-10T04:31:53;8.97;;;7.67;;
16173;SDS011;14031;50.158;8.626;2022-12-10T04:34:24;9.47;;;7.87;;
16173;SDS011;14031;50.158;8.626;2022-12-10T04:36:51;10.43;;;7.70;;
16173;SDS011;14031;50.158;8.626;2022-12-10T04:39:18;9.07;;;7.83;;
16173;SDS011;14031;50.158;8.626;2022-12-10T04:41:46;9.83;;;7.60;;
16173;SDS011;14031;50.158;8.626;2022-12-10T04:44:13;9.10;;;7.70;;
16173;SDS011;14031;50.158;8.626;2022-12-10T04:46:40;10.17;;;8.10;;
16173;SDS011;14031;50.158;8.626;2022-12-10T04:49:07;10.33;;;8.27;;
16173;SDS011;14031;50.158;8.626;2022-12-10T04:51:35;10.90;;;7.50;;
16173;SDS011;14031;50.158;8.626;2022-12-10T04:54:02;12.90;;;8.33;;
16173;SDS011;14031;50.158;8.626;2022-12-10T04:56:30;11.23;;;7.73;;
16173;SDS011;14031;50.158;8.626;2022-12-10T04:58:57;10.20;;;8.00;;
16173;SDS011;14031;50.158;8.626;2022-12-10T05:01:25;10.23;;;8.53;;
16173;SDS011;14031;50.158;8.626;2022-12-10T05:03:52;10.17;;;8.17;;
16173;SDS011;14031;50.158;8.626;2022-12-10T05:06:19;8.57;;;7.67;;
16173;SDS011;14031;50.158;8.626;2022-12-10T05:08:58;10.20;;;8.33;;
16173;SDS011;14031;50.158;8.626;2022-12-10T05:11:26;10.50;;;8.37;;
16173;SDS011;14031;50.158;8.626;2022-12-10T05:13:54;12.33;;;8.53;;
16173;SDS011;14031;50.158;8.626;2022-12-10T05:16:22;9.67;;;7.87;;
16173;SDS011;14031;50.158;8.626;2022-12-10T05:18:50;10.77;;;7.93;;
16173;SDS011;14031;50.158;8.626;2022-12-10T05:21:18;12.87;;;8.00;;
16173;SDS011;14031;50.158;8.626;2022-12-10T05:23:48;12.20;;;8.47;;
16173;SDS011;14031;50.158;8.626;2022-12-10T05:26:17;10.27;;;8.50;;
16173;SDS011;14031;50.158;8.626;2022-12-10T05:28:45;13.73;;;8.30;;
16173;SDS011;14031;50.158;8.626;2022-12-10T05:31:13;11.23;;;8.93;;
16173;SDS011;14031;50.158;8.626;2022-12-10T05:33:42;12.13;;;8.57;;
16173;SDS011;14031;50.158;8.626;2022-12-10T05:36:09;11.00;;;8.53;;
16173;SDS011;14031;50.158;8.626;2022-12-10T05:38:37;12.07;;;8.67;;
16173;SDS011;14031;50.158;8.626;2022-12-10T05:41:05;14.87;;;8.43;;
16173;SDS011;14031;50.158;8.626;2022-12-10T05:43:34;12.97;;;8.63;;
16173;SDS011;14031;50.158;8.626;2022-12-10T05:46:03;12.73;;;9.07;;
16173;SDS011;14031;50.158;8.626;2022-12-10T05:48:32;11.00;;;8.70;;
16173;SDS011;14031;50.158;8.626;2022-12-10T05:51:02;13.97;;;8.70;;
16173;SDS011;14031;50.158;8.626;2022-12-10T05:53:29;14.87;;;9.47;;
16173;SDS011;14031;50.158;8.626;2022-12-10T05:55:59;12.97;;;9.60;;
16173;SDS011;14031;50.158;8.626;2022-12-10T05:58:26;14.73;;;8.57;;
16173;SDS011;14031;50.158;8.626;2022-12-10T06:00:55;11.73;;;8.80;;
16173;SDS011;14031;50.158;8.626;2022-12-10T06:03:23;9.67;;;8.27;;
16173;SDS011;14031;50.158;8.626;2022-12-10T06:05:52;14.43;;;8.90;;
16173;SDS011;14031;50.158;8.626;2022-12-10T06:08:19;13.77;;;9.30;;
16173;SDS011;14031;50.158;8.626;2022-12-10T06:10:51;16.80;;;10.23;;
16173;SDS011;14031;50.158;8.626;2022-12-10T06:13:18;11.33;;;8.47;;
16173;SDS011;14031;50.158;8.626;2022-12-10T06:15:46;14.73;;;9.10;;
16173;SDS011;14031;50.158;8.626;2022-12-10T06:18:14;14.70;;;10.00;;
16173;SDS011;14031;50.158;8.626;2022-12-10T06:20:40;12.70;;;9.27;;
16173;SDS011;14031;50.158;8.626;2022-12-10T06:23:07;13.80;;;10.10;;
16173;SDS011;14031;50.158;8.626;2022-12-10T06:25:37;13.50;;;9.40;;
16173;SDS011;14031;50.158;8.626;2022-12-10T06:28:04;12.83;;;9.63;;
16173;SDS011;14031;50.158;8.626;2022-12-10T06:30:31;14.50;;;10.33;;
16173;SDS011;14031;50.158;8.626;2022-12-10T06:32:57;15.90;;;10.63;;
16173;SDS011;14031;50.158;8.626;2022-12-10T06:35:26;11.30;;;9.30;;
16173;SDS011;14031;50.158;8.626;2022-12-10T06:37:53;11.57;;;9.00;;
16173;SDS011;14031;50.158;8.626;2022-12-10T06:40:24;12.13;;;9.47;;
16173;SDS011;14031;50.158;8.626;2022-12-10T06:42:51;16.30;;;10.67;;
16173;SDS011;14031;50.158;8.626;2022-12-10T06:45:18;13.80;;;9.47;;
16173;SDS011;14031;50.158;8.626;2022-12-10T06:47:44;13.87;;;9.27;;
16173;SDS011;14031;50.158;8.626;2022-12-10T06:50:11;14.73;;;10.07;;
16173;SDS011;14031;50.158;8.626;2022-12-10T06:52:39;14.90;;;10.57;;
16173;SDS011;14031;50.158;8.626;2022-12-10T06:55:06;17.10;;;10.13;;
16173;SDS011;14031;50.158;8.626;2022-12-10T06:57:34;13.67;;;9.70;;
16173;SDS011;14031;50.158;8.626;2022-12-10T07:00:01;14.10;;;9.47;;
16173;SDS011;14031;50.158;8.626;2022-12-10T07:02:27;14.67;;;9.93;;
16173;SDS011;14031;50.158;8.626;2022-12-10T07:04:54;14.87;;;10.50;;
16173;SDS011;14031;50.158;8.626;2022-12-10T07:07:24;11.47;;;9.13;;
16173;SDS011;14031;50.158;8.626;2022-12-10T07:09:55;12.30;;;9.30;;
16173;SDS011;14031;50.158;8.626;2022-12-10T07:12:22;14.53;;;9.70;;
16173;SDS011;14031;50.158;8.626;2022-12-10T07:14:51;13.03;;;9.87;;
16173;SDS011;14031;50.158;8.626;2022-12-10T07:17:18;13.33;;;9.87;;
16173;SDS011;14031;50.158;8.626;2022-12-10T07:19:44;14.97;;;10.40;;
16173;SDS011;14031;50.158;8.626;2022-12-10T07:22:11;15.40;;;10.67;;
16173;SDS011;14031;50.158;8.626;2022-12-10T07:24:39;19.17;;;12.83;;
16173;SDS011;14031;50.158;8.626;2022-12-10T07:27:07;25.03;;;15.43;;
16173;SDS011;14031;50.158;8.626;2022-12-10T07:29:34;34.60;;;19.67;;
16173;SDS011;14031;50.158;8.626;2022-12-10T07:32:01;55.23;;;28.13;;
16173;SDS011;14031;50.158;8.626;2022-12-10T07:34:28;86.47;;;36.70;;
16173;SDS011;14031;50.158;8.626;2022-12-10T07:36:55;88.93;;;37.77;;
16173;SDS011;14031;50.158;8.626;2022-12-10T07:39:22;47.53;;;23.03;;
16173;SDS011;14031;50.158;8.626;2022-12-10T07:41:49;33.57;;;16.27;;
16173;SDS011;14031;50.158;8.626;2022-12-10T07:44:18;26.63;;;14.63;;
16173;SDS011;14031;50.158;8.626;2022-12-10T07:46:46;20.47;;;13.17;;
16173;SDS011;14031;50.158;8.626;2022-12-10T07:49:13;15.27;;;11.13;;
16173;SDS011;14031;50.158;8.626;2022-12-10T07:51:43;16.40;;;11.70;;
16173;SDS011;14031;50.158;8.626;2022-12-10T07:54:10;16.63;;;11.83;;
16173;SDS011;14031;50.158;8.626;2022-12-10T07:56:37;15.87;;;11.33;;
16173;SDS011;14031;50.158;8.626;2022-12-10T07:59:03;12.17;;;9.53;;
16173;SDS011;14031;50.158;8.626;2022-12-10T08:01:35;13.20;;;9.67;;
16173;SDS011;14031;50.158;8.626;2022-12-10T08:04:01;14.80;;;9.93;;
16173;SDS011;14031;50.158;8.626;2022-12-10T08:06:28;11.53;;;8.70;;
16173;SDS011;14031;50.158;8.626;2022-12-10T08:08:57;11.37;;;9.40;;
16173;SDS011;14031;50.158;8.626;2022-12-10T08:11:24;11.53;;;8.73;;
16173;SDS011;14031;50.158;8.626;2022-12-10T08:13:52;11.50;;;8.43;;
16173;SDS011;14031;50.158;8.626;2022-12-10T08:16:19;14.90;;;8.17;;
16173;SDS011;14031;50.158;8.626;2022-12-10T08:18:49;11.03;;;8.40;;
16173;SDS011;14031;50.158;8.626;2022-12-10T08:21:16;11.53;;;8.23;;
16173;SDS011;14031;50.158;8.626;2022-12-10T08:23:47;13.23;;;9.10;;
16173;SDS011;14031;50.158;8.626;2022-12-10T08:26:15;13.67;;;9.10;;
16173;SDS011;14031;50.158;8.626;2022-12-10T08:28:43;11.53;;;9.10;;
16173;SDS011;14031;50.158;8.626;2022-12-10T08:31:13;11.13;;;8.47;;
16173;SDS011;14031;50.158;8.626;2022-12-10T08:33:41;13.17;;;9.47;;
16173;SDS011;14031;50.158;8.626;2022-12-10T08:36:11;10.90;;;8.87;;
16173;SDS011;14031;50.158;8.626;2022-12-10T08:38:39;10.87;;;8.00;;
16173;SDS011;14031;50.158;8.626;2022-12-10T08:41:06;12.07;;;8.47;;
16173;SDS011;14031;50.158;8.626;2022-12-10T08:43:34;9.90;;;8.00;;
16173;SDS011;14031;50.158;8.626;2022-12-10T08:46:01;11.77;;;8.27;;
16173;SDS011;14031;50.158;8.626;2022-12-10T08:48:28;9.87;;;8.37;;
16173;SDS011;14031;50.158;8.626;2022-12-10T08:50:55;11.27;;;8.20;;
16173;SDS011;14031;50.158;8.626;2022-12-10T08:53:23;9.20;;;8.27;;
16173;SDS011;14031;50.158;8.626;2022-12-10T08:55:50;8.50;;;7.57;;
16173;SDS011;14031;50.158;8.626;2022-12-10T08:58:17;8.87;;;7.97;;
16173;SDS011;14031;50.158;8.626;2022-12-10T09:00:44;10.47;;;8.17;;
16173;SDS011;14031;50.158;8.626;2022-12-10T09:03:11;8.87;;;7.73;;
16173;SDS011;14031;50.158;8.626;2022-12-10T09:05:38;9.37;;;7.90;;
16173;SDS011;14031;50.158;8.626;2022-12-10T09:08:05;9.57;;;7.53;;
16173;SDS011;14031;50.158;8.626;2022-12-10T09:10:33;9.57;;;7.63;;
16173;SDS011;14031;50.158;8.626;2022-12-10T09:13:01;10.60;;;7.43;;
16173;SDS011;14031;50.158;8.626;2022-12-10T09:15:28;9.23;;;7.57;;
16173;SDS011;14031;50.158;8.626;2022-12-10T09:17:55;7.43;;;6.70;;
16173;SDS011;14031;50.158;8.626;2022-12-10T09:20:22;8.30;;;7.00;;
16173;SDS011;14031;50.158;8.626;2022-12-10T09:22:49;6.50;;;5.97;;
16173;SDS011;14031;50.158;8.626;2022-12-10T09:25:15;7.63;;;6.83;;
16173;SDS011;14031;50.158;8.626;2022-12-10T09:27:46;7.90;;;7.10;;
16173;SDS011;14031;50.158;8.626;2022-12-10T09:30:13;7.60;;;6.87;;
16173;SDS011;14031;50.158;8.626;2022-12-10T09:32:40;8.13;;;6.97;;
16173;SDS011;14031;50.158;8.626;2022-12-10T09:35:07;8.07;;;7.33;;
16173;SDS011;14031;50.158;8.626;2022-12-10T09:37:34;7.53;;;6.73;;
16173;SDS011;14031;50.158;8.626;2022-12-10T09:40:02;8.13;;;7.00;;
16173;SDS011;14031;50.158;8.626;2022-12-10T09:42:33;8.50;;;7.60;;
16173;SDS011;14031;50.158;8.626;2022-12-10T09:45:09;7.57;;;6.60;;
16173;SDS011;14031;50.158;8.626;2022-12-10T09:47:45;7.27;;;6.67;;
16173;SDS011;14031;50.158;8.626;2022-12-10T09:50:20;8.63;;;7.13;;
16173;SDS011;14031;50.158;8.626;2022-12-10T09:52:52;7.87;;;6.43;;
16173;SDS011;14031;50.158;8.626;2022-12-10T09:55:30;7.57;;;6.77;;
16173;SDS011;14031;50.158;8.626;2022-12-10T09:57:59;7.30;;;6.60;;
16173;SDS011;14031;50.158;8.626;2022-12-10T10:00:32;7.80;;;7.00;;
16173;SDS011;14031;50.158;8.626;2022-12-10T10:03:02;7.70;;;6.87;;
16173;SDS011;14031;50.158;8.626;2022-12-10T10:05:29;9.33;;;7.63;;
16173;SDS011;14031;50.158;8.626;2022-12-10T10:08:00;9.07;;;7.33;;
16173;SDS011;14031;50.158;8.626;2022-12-10T10:10:29;8.43;;;7.67;;
16173;SDS011;14031;50.158;8.626;2022-12-10T10:13:00;8.73;;;7.90;;
16173;SDS011;14031;50.158;8.626;2022-12-10T10:15:39;8.30;;;7.50;;
16173;SDS011;14031;50.158;8.626;2022-12-10T10:18:11;10.17;;;8.17;;
16173;SDS011;14031;50.158;8.626;2022-12-10T10:20:43;11.40;;;8.30;;
16173;SDS011;14031;50.158;8.626;2022-12-10T10:23:12;9.27;;;8.30;;
16173;SDS011;14031;50.158;8.626;2022-12-10T10:25:41;10.80;;;8.30;;
16173;SDS011;14031;50.158;8.626;2022-12-10T10:28:09;8.30;;;7.23;;
16173;SDS011;14031;50.158;8.626;2022-12-10T10:30:40;9.10;;;7.90;;
16173;SDS011;14031;50.158;8.626;2022-12-10T10:33:09;10.47;;;8.63;;
16173;SDS011;14031;50.158;8.626;2022-12-10T10:35:42;8.73;;;7.83;;
16173;SDS011;14031;50.158;8.626;2022-12-10T10:38:15;9.53;;;7.90;;
16173;SDS011;14031;50.158;8.626;2022-12-10T10:40:46;8.73;;;7.67;;
16173;SDS011;14031;50.158;8.626;2022-12-10T10:43:18;8.27;;;7.40;;
16173;SDS011;14031;50.158;8.626;2022-12-10T10:45:53;8.27;;;7.47;;
16173;SDS011;14031;50.158;8.626;2022-12-10T10:48:23;8.93;;;8.03;;
16173;SDS011;14031;50.158;8.626;2022-12-10T10:50:52;9.13;;;8.23;;
16173;SDS011;14031;50.158;8.626;2022-12-10T10:53:28;8.80;;;7.90;;
16173;SDS011;14031;50.158;8.626;2022-12-10T10:55:58;9.47;;;7.57;;
16173;SDS011;14031;50.158;8.626;2022-12-10T10:58:31;9.27;;;8.30;;
16173;SDS011;14031;50.158;8.626;2022-12-10T11:01:01;8.97;;;8.10;;
16173;SDS011;14031;50.158;8.626;2022-12-10T11:03:29;9.33;;;8.33;;
16173;SDS011;14031;50.158;8.626;2022-12-10T11:05:58;10.13;;;7.90;;
16173;SDS011;14031;50.158;8.626;2022-12-10T11:08:26;8.50;;;7.70;;
16173;SDS011;14031;50.158;8.626;2022-12-10T11:10:57;9.23;;;8.23;;
16173;SDS011;14031;50.158;8.626;2022-12-10T11:13:29;9.20;;;8.30;;
16173;SDS011;14031;50.158;8.626;2022-12-10T11:15:58;12.03;;;9.57;;
16173;SDS011;14031;50.158;8.626;2022-12-10T11:18:36;13.23;;;8.47;;
16173;SDS011;14031;50.158;8.626;2022-12-10T11:21:05;9.10;;;8.17;;
16173;SDS011;14031;50.158;8.626;2022-12-10T11:23:36;9.37;;;8.00;;
16173;SDS011;14031;50.158;8.626;2022-12-10T11:29:02;8.57;;;7.67;;
16173;SDS011;14031;50.158;8.626;2022-12-10T11:31:42;8.33;;;7.40;;
16173;SDS011;14031;50.158;8.626;2022-12-10T11:34:27;11.17;;;8.27;;
16173;SDS011;14031;50.158;8.626;2022-12-10T11:37:06;12.60;;;8.80;;
16173;SDS011;14031;50.158;8.626;2022-12-10T11:39:49;8.70;;;7.80;;
16173;SDS011;14031;50.158;8.626;2022-12-10T11:42:38;11.10;;;8.90;;
16173;SDS011;14031;50.158;8.626;2022-12-10T11:45:15;9.53;;;8.57;;
16173;SDS011;14031;50.158;8.626;2022-12-10T11:47:51;12.30;;;9.43;;
16173;SDS011;14031;50.158;8.626;2022-12-10T11:50:33;12.23;;;8.23;;
16173;SDS011;14031;50.158;8.626;2022-12-10T11:56:04;9.00;;;7.97;;
16173;SDS011;14031;50.158;8.626;2022-12-10T11:58:39;11.47;;;8.50;;
16173;SDS011;14031;50.158;8.626;2022-12-10T12:01:21;9.80;;;8.23;;
16173;SDS011;14031;50.158;8.626;2022-12-10T12:06:56;8.30;;;7.47;;
16173;SDS011;14031;50.158;8.626;2022-12-10T12:09:42;8.47;;;7.67;;
16173;SDS011;14031;50.158;8.626;2022-12-10T12:12:21;10.33;;;7.90;;
16173;SDS011;14031;50.158;8.626;2022-12-10T12:14:57;8.90;;;7.83;;
16173;SDS011;14031;50.158;8.626;2022-12-10T12:17:28;9.13;;;8.10;;
16173;SDS011;14031;50.158;8.626;2022-12-10T12:20:03;8.97;;;7.33;;
16173;SDS011;14031;50.158;8.626;2022-12-10T12:22:39;13.30;;;8.20;;
16173;SDS011;14031;50.158;8.626;2022-12-10T12:25:14;8.83;;;7.70;;
16173;SDS011;14031;50.158;8.626;2022-12-10T12:27:48;9.00;;;8.07;;
16173;SDS011;14031;50.158;8.626;2022-12-10T12:30:20;7.70;;;6.97;;
16173;SDS011;14031;50.158;8.626;2022-12-10T12:32:50;8.27;;;7.47;;
16173;SDS011;14031;50.158;8.626;2022-12-10T12:35:27;8.27;;;7.40;;
16173;SDS011;14031;50.158;8.626;2022-12-10T12:37:59;9.07;;;8.13;;
16173;SDS011;14031;50.158;8.626;2022-12-10T12:40:33;9.03;;;8.13;;
16173;SDS011;14031;50.158;8.626;2022-12-10T12:43:08;8.00;;;7.20;;
16173;SDS011;14031;50.158;8.626;2022-12-10T12:45:39;8.07;;;7.20;;
16173;SDS011;14031;50.158;8.626;2022-12-10T12:48:14;7.73;;;6.93;;
16173;SDS011;14031;50.158;8.626;2022-12-10T12:50:49;10.77;;;7.60;;
16173;SDS011;14031;50.158;8.626;2022-12-10T12:53:20;8.53;;;7.63;;
16173;SDS011;14031;50.158;8.626;2022-12-10T12:55:52;8.70;;;7.80;;
16173;SDS011;14031;50.158;8.626;2022-12-10T12:58:28;10.03;;;8.40;;
16173;SDS011;14031;50.158;8.626;2022-12-10T13:01:05;7.87;;;7.10;;
16173;SDS011;14031;50.158;8.626;2022-12-10T13:03:40;8.03;;;7.20;;
16173;SDS011;14031;50.158;8.626;2022-12-10T13:06:16;7.93;;;7.13;;
16173;SDS011;14031;50.158;8.626;2022-12-10T13:08:47;7.17;;;6.50;;
16173;SDS011;14031;50.158;8.626;2022-12-10T13:11:19;7.07;;;6.47;;
16173;SDS011;14031;50.158;8.626;2022-12-10T13:14:03;7.37;;;6.63;;
16173;SDS011;14031;50.158;8.626;2022-12-10T13:16:55;7.87;;;7.17;;
16173;SDS011;14031;50.158;8.626;2022-12-10T13:19:28;6.83;;;6.23;;
16173;SDS011;14031;50.158;8.626;2022-12-10T13:21:59;8.10;;;6.77;;
16173;SDS011;14031;50.158;8.626;2022-12-10T13:24:59;8.40;;;7.37;;
16173;SDS011;14031;50.158;8.626;2022-12-10T13:27:33;8.03;;;7.30;;
16173;SDS011;14031;50.158;8.626;2022-12-10T13:30:03;7.33;;;6.63;;
16173;SDS011;14031;50.158;8.626;2022-12-10T13:32:52;9.07;;;7.60;;
16173;SDS011;14031;50.158;8.626;2022-12-10T13:35:29;7.80;;;6.83;;
16173;SDS011;14031;50.158;8.626;2022-12-10T13:38:04;8.40;;;7.10;;
16173;SDS011;14031;50.158;8.626;2022-12-10T13:40:43;10.30;;;7.47;;
16173;SDS011;14031;50.158;8.626;2022-12-10T13:43:42;8.77;;;6.50;;
16173;SDS011;14031;50.158;8.626;2022-12-10T13:46:50;7.57;;;6.83;;
16173;SDS011;14031;50.158;8.626;2022-12-10T13:49:25;7.57;;;6.87;;
16173;SDS011;14031;50.158;8.626;2022-12-10T13:51:55;9.57;;;7.20;;
16173;SDS011;14031;50.158;8.626;2022-12-10T13:57:38;7.13;;;6.43;;
16173;SDS011;14031;50.158;8.626;2022-12-10T14:00:15;7.40;;;6.67;;
16173;SDS011;14031;50.158;8.626;2022-12-10T14:02:58;7.57;;;6.87;;
16173;SDS011;14031;50.158;8.626;2022-12-10T14:05:55;7.43;;;6.73;;
16173;SDS011;14031;50.158;8.626;2022-12-10T14:08:33;6.90;;;6.30;;
16173;SDS011;14031;50.158;8.626;2022-12-10T14:11:04;7.23;;;6.00;;
16173;SDS011;14031;50.158;8.626;2022-12-10T14:13:35;6.97;;;6.30;;
16173;SDS011;14031;50.158;8.626;2022-12-10T14:16:05;7.10;;;6.33;;
16173;SDS011;14031;50.158;8.626;2022-12-10T14:18:38;6.40;;;5.87;;
16173;SDS011;14031;50.158;8.626;2022-12-10T14:21:07;6.37;;;5.80;;
16173;SDS011;14031;50.158;8.626;2022-12-10T14:23:36;7.10;;;6.40;;
16173;SDS011;14031;50.158;8.626;2022-12-10T14:26:11;6.80;;;6.30;;
16173;SDS011;14031;50.158;8.626;2022-12-10T14:28:42;7.60;;;6.83;;
16173;SDS011;14031;50.158;8.626;2022-12-10T14:31:13;10.40;;;7.07;;
16173;SDS011;14031;50.158;8.626;2022-12-10T14:33:43;7.43;;;6.77;;
16173;SDS011;14031;50.158;8.626;2022-12-10T14:36:14;6.60;;;6.00;;
16173;SDS011;14031;50.158;8.626;2022-12-10T14:38:43;7.10;;;6.40;;
16173;SDS011;14031;50.158;8.626;2022-12-10T14:41:13;6.87;;;6.27;;
16173;SDS011;14031;50.158;8.626;2022-12-10T14:43:45;7.67;;;6.87;;
16173;SDS011;14031;50.158;8.626;2022-12-10T14:46:13;7.63;;;6.87;;
16173;SDS011;14031;50.158;8.626;2022-12-10T14:48:43;6.97;;;6.37;;
16173;SDS011;14031;50.158;8.626;2022-12-10T14:51:12;7.73;;;7.03;;
16173;SDS011;14031;50.158;8.626;2022-12-10T14:53:41;7.63;;;6.70;;
16173;SDS011;14031;50.158;8.626;2022-12-10T14:56:08;7.30;;;6.50;;
16173;SDS011;14031;50.158;8.626;2022-12-10T14:58:41;8.03;;;7.20;;
16173;SDS011;14031;50.158;8.626;2022-12-10T15:01:13;7.43;;;6.37;;
16173;SDS011;14031;50.158;8.626;2022-12-10T15:03:43;7.60;;;6.90;;
16173;SDS011;14031;50.158;8.626;2022-12-10T15:06:13;7.70;;;7.03;;
16173;SDS011;14031;50.158;8.626;2022-12-10T15:08:43;9.13;;;6.67;;
16173;SDS011;14031;50.158;8.626;2022-12-10T15:11:14;7.30;;;6.70;;